CheckWX is a tool to help pilots better visualize weather data.  It is not intended as a substitute for an official pre-flight weather briefing.

10:48:46 UTC

EGNJ TAF
Humberside Airport
Grimsby, United Kingdom
TAF EGNJ 260802Z 2609/2618 03010KT 5000 -DZ BKN005 BECMG 2609/2612 9999 NSW SCT018

Jun-26@
09:00 UTC

Jun-26 @ 09:00 UTC

Jun-26@
18:00 UTC

Jun-26 @ 18:00 UTC

TAF EGNJ 260802Z 2609/2618 03010KT 5000 -DZ BKN005
Wind
  • 030° at 10 KTS
Conditions
Light Drizzle
Cloud Levels
  • Broken at 500' AGL

Jun-26@
09:00 UTC

Jun-26 @ 09:00 UTC

Jun-26@
18:00 UTC

Jun-26 @ 18:00 UTC

BECMG 2609/2612 9999 NSW SCT018

Becoming

Becoming Conditions expected by Wed, Jun 26, 2019 @ 12:00 UTC

Wind
  • 030° at 10 KTS
Conditions
No significant weather
Cloud Levels
  • Scattered at 1,800' AGL